Terminal Aerodrome Forecast
Issued by NWS Missoula, MT

Home | Current Version | Previous Version | Text Only | Print | Product List | Glossary On
Versions: 1 2 3 4 5 6 7 8 9 10 11 12 13 14 15 16
000
FTUS45 KMSO 300522
TAFGPI
TAF
KGPI 300522Z 3006/0106 15010KT P6SM VCSH BKN050 OVC080
     FM301200 18005KT P6SM -RA OVC020
     FM302000 18010KT P6SM VCSH OVC050
     FM302200 20008KT P6SM -SHRA OVC040=

USA.gov is the U.S. government's official web portal to all federal, state and local government web resources and services.